Yanzhou, China
Current Conditions -  °F | °C
As of 8:00 AM on Wednesday 22 Oct 2014 (Local Time) from ZSJN Reporting Station
Haze Haze  
Wind Chill: 46°   Ceiling: Unl
Heat Index: 46°   Visibility: 1.8mi
Dew Point: 45°   Wind: 2mph
Humidity: 93%   Direction: NA
Pressure: 30.27"   Gusts: NA
Location:  35.55°N, 116.82°E
Report Text: ZSJN 220000Z VRB01MPS 3000 BR NSC 08/07 Q1025 NOSIG
Loading
Personal Weather Stations






























Interactive Weather Map
Tropical Storm Tracking
New forecast layout! Learn more

10-Day Weather Forecast

Advertisements
Track Severe Weather on mobile